^^
Station Historical Data
Daily Summary for February 14, 2018 Units:  Metric    English   Both
« Previous Day
Next Day »
Daily Weekly Monthly Yearly Custom
  High: Low: Average:
Temperature: -17.8 °C 23.6 °C 28.4 °C
Dew Point: -17.8 °C 10 °C 13.3 °C
Humidity: Humidity% 20% 40%
Wind Speed: 0km/h 0km/h 16.4km/h
Wind Gust: 0km/h - -
Wind- - SW
Pressure: 0 hPa 1002.6 hPa -
Precipitation: 6.1 mm    
Historical Graphs
 
 
Tabular Data for February 14, 2018
Time Temperature Dew Point Pressure Wind Wind Speed Wind Gust Humidity Rainfall Rate (Hourly) solar Conditions
-17.8 °C -17.8 °C 0 hPa Calm     Humidity% 0 mm SolarRadiationWatts/m^2 W/m2 Conditions
13:52 36.1 °C 13.6 °C 1005.6 hPa North 11.1 km/h 20.9 km/h 26% 0 mm 1007.0 W/m2
14:02 35.7 °C 14.4 °C 1005.3 hPa North 3.2 km/h 20.9 km/h 28% 0 mm 1028.0 W/m2
14:09 36 °C 13.5 °C 1005.3 hPa North 14.3 km/h 20.9 km/h 26% 0 mm 1018.0 W/m2
14:21 36.4 °C 12.6 °C 1005 hPa NNW 6.4 km/h 17.7 km/h 24% 0 mm 1018.0 W/m2
14:36 36.8 °C 10.9 °C 1004.6 hPa NW 14.3 km/h 22.5 km/h 21% 0 mm 928.0 W/m2
15:03 36.6 °C 10 °C 1003.9 hPa WNW 7.9 km/h 17.7 km/h 20% 0 mm 179.0 W/m2
15:32 35.8 °C 10.1 °C 1003.3 hPa WNW 9.7 km/h 11.3 km/h 21% 0 mm 125.0 W/m2
15:46 33.3 °C 13.9 °C 1003.6 hPa SW 40.4 km/h 54.7 km/h 31% 0 mm 70.0 W/m2
16:02 28.2 °C 14.8 °C 1005.6 hPa East 22.7 km/h 43.5 km/h 44% 4.06 mm 107.0 W/m2
16:26 29.7 °C 16.8 °C 1002.9 hPa Calm     46% 6.1 mm 715.0 W/m2
16:47 32.2 °C 15.2 °C 1002.9 hPa SE 11.1 km/h 12.9 km/h 36% 6.1 mm 570.0 W/m2
16:56 33.4 °C 16.3 °C 1002.9 hPa SSE 17.7 km/h 17.7 km/h 36% 0.51 mm 494.0 W/m2
17:18 33.7 °C 15.7 °C 1002.6 hPa SSE 14.3 km/h 14.5 km/h 34% 0 mm 434.0 W/m2
17:34 33.6 °C 16.5 °C 1002.9 hPa SSW 24.1 km/h 29 km/h 36% 0 mm 381.0 W/m2
17:42 32.9 °C 16.3 °C 1002.9 hPa SSW 17.7 km/h 32.2 km/h 37% 0 mm 327.0 W/m2
18:02 32.5 °C 15.1 °C 1002.9 hPa SW 17.7 km/h 30.6 km/h 35% 0 mm 253.0 W/m2
18:22 32.1 °C 14.7 °C 1002.9 hPa SSW 16.3 km/h 22.5 km/h 35% 0 mm 181.0 W/m2
18:42 31.7 °C 14.8 °C 1003.3 hPa SSW 19.5 km/h 25.7 km/h 36% 0 mm 74.0 W/m2
19:02 30.8 °C 14.4 °C 1003.6 hPa SSW 19.5 km/h 29 km/h 37% 0 mm 39.0 W/m2
19:22 29.2 °C 15 °C 1004.3 hPa SSW 20.9 km/h 29 km/h 42% 0 mm 12.0 W/m2
19:42 28.2 °C 14.8 °C 1004.6 hPa SSW 22.7 km/h 27.4 km/h 44% 0 mm 0.0 W/m2
20:02 27.5 °C 14.5 °C 1004.6 hPa SSW 24.1 km/h 24.1 km/h 45% 0 mm 0.0 W/m2
20:08 27.5 °C 14.5 °C 1004.6 hPa SSW 24.1 km/h 24.1 km/h 45% 0 mm 0.0 W/m2
20:17 27.1 °C 14.5 °C 1005 hPa SSW 22.7 km/h 25.7 km/h 46% 0 mm 0.0 W/m2
20:38 27.1 °C 14.5 °C 1005 hPa SSW 17.7 km/h 24.1 km/h 46% 0 mm 0.0 W/m2
20:53 26.6 °C 13.7 °C 1005.3 hPa SSW 20.9 km/h 22.5 km/h 45% 0 mm 0.0 W/m2
21:24 26.1 °C 12.9 °C 1006 hPa SSW 14.3 km/h 25.7 km/h 44% 0 mm 0.0 W/m2
21:38 25.7 °C 13.2 °C 1006.3 hPa SSW 22.7 km/h 25.7 km/h 46% 0 mm 0.0 W/m2
21:53 25.6 °C 13.5 °C 1006.7 hPa SSW 16.3 km/h 29 km/h 47% 0 mm 0.0 W/m2
22:08 25.2 °C 14.3 °C 1007 hPa SSW 16.3 km/h 20.9 km/h 51% 0 mm 0.0 W/m2
22:22 24.9 °C 14.4 °C 1007 hPa SW 16.3 km/h 20.9 km/h 52% 0 mm 0.0 W/m2
22:33 24.6 °C 14.4 °C 1007 hPa SSW 16.3 km/h 24.1 km/h 53% 0 mm 0.0 W/m2
22:43 24.4 °C 14.2 °C 1007 hPa SSW 22.7 km/h 25.7 km/h 53% 0 mm 0.0 W/m2
22:58 24.2 °C 14.3 °C 1007 hPa SSW 14.3 km/h 22.5 km/h 54% 0 mm 0.0 W/m2
23:13 23.9 °C 14.3 °C 1006.7 hPa SSW 16.3 km/h 22.5 km/h 55% 0 mm 0.0 W/m2
23:27 23.8 °C 13.9 °C 1006.7 hPa SSW 16.3 km/h 20.9 km/h 54% 0 mm 0.0 W/m2
23:38 23.8 °C 13.9 °C 1006.7 hPa SSW 17.7 km/h 19.3 km/h 54% 0 mm 0.0 W/m2
23:59 23.6 °C 14 °C 1006.7 hPa SSW 11.1 km/h 16.1 km/h 55% 0 mm 0.0 W/m2
Canyon Roadhouse, Fishriver Canyon, Namibia
Compliments of Weather Underground - 1.75 mb